^^

Flughafenwetter in der weiteren Umgebung

 

EDVE - Braunschweig, Germany
Entfernung von Station: N 5 km
Aktualisierung: 24.06.2017 20:50
nicht aktuell
bedeckt
bedeckt
 Wind aus WSW
Wind: WSW 20 km/h
Temperatur: 19°C
Taupunkt: 15°C
Luftfeuchte: 78%
Luftdruck: 1013 hPa
Wolken: bedeckt
Sicht: 10 km
Wolken Details: bewölkt 792 m
stark bewölkt 914 m
bedeckt 1097 m
2017/06/24 18:50 EDVE 241850Z 25011KT 220V280 9999 SCT026 BKN030 OVC036 19/15 Q1013
ETHC - Celle (ger-Army), Germany
Entfernung von Station: NW 51 km
Aktualisierung: 25.06.2017 05:20
stark bewölkt
stark bewölkt
 Wind aus SSW
Wind: SSW 15 km/h
Temperatur: 17°C
Taupunkt: 14°C
Luftfeuchte: 83%
Luftdruck: 1009 hPa
Wolken: stark bewölkt
Sicht: 10 km
Wolken Details: stark bewölkt 427 m
stark bewölkt 792 m
2017/06/25 03:20 ETHC 250320Z 21008KT 9999 BKN014 BKN026 17/14 Q1009 BLACKGRN
 
EDDV - Hannover, Germany
Entfernung von Station: WNW 62 km
Aktualisierung: 25.06.2017 05:20
stark bewölkt
stark bewölkt
 Wind aus SW
Wind: SW 15 km/h
Temperatur: 18°C
Taupunkt: 15°C
Luftfeuchte: 83%
Luftdruck: 1009 hPa
Wolken: stark bewölkt
Sicht: 10 km
Wolken Details: bewölkt 488 m
stark bewölkt 823 m
2017/06/25 03:20 EDDV 250320Z 22008KT 9999 SCT016 BKN027 18/15 Q1009
ETHS - Fassberg (ger-Af, Germany
Entfernung von Station: NNW 75 km
Aktualisierung: 25.06.2017 05:20
stark bewölkt
stark bewölkt
 Wind aus WSW
Wind: WSW 15 km/h
Temperatur: 16°C
Taupunkt: 15°C
Luftfeuchte: 94%
Luftdruck: 1008 hPa
Wolken: stark bewölkt
Sicht: 9 km
Wolken Details: bewölkt 427 m
stark bewölkt 671 m
2017/06/25 03:20 ETHS 250320Z 25008KT 9000 SCT014 BKN022 16/15 Q1008 WHT
 
EDBC - Cochstedt Arpt, Germany
Entfernung von Station: SO 76 km
Aktualisierung: 20.10.2016 13:20
nicht aktuell
stark bewölkt
stark bewölkt
 Wind aus S
Wind: S 15 km/h
Temperatur: 8°C
Windkühle: 5°C
Taupunkt: 5°C
Luftfeuchte: 82%
Luftdruck: 1013 hPa
Wolken: stark bewölkt
Sicht: 10 km
Wolken Details: leicht bewölkt 488 m
stark bewölkt 1280 m
2016/10/20 11:20 EDBC 201120Z 17008KT 9999 FEW016 BKN042 08/05 Q1013
ETNW - Wunstorf (ger-Af, Germany
Entfernung von Station: WNW 79 km
Aktualisierung: 25.06.2017 05:20

 Wind aus SW
Wind: SW 20 km/h
Temperatur: 18°C
Taupunkt: 15°C
Luftfeuchte: 83%
Luftdruck: 1009 hPa
2017/06/25 03:20 ETNW 250320Z AUTO 23011KT //// // ////// 18/15 Q1009 ///
 
ETHB - Buckeburg(Ger-Ar, Germany
Entfernung von Station: W 101 km
Aktualisierung: 25.06.2017 05:20

 Wind aus WSW
Wind: WSW 19 km/h
Temperatur: 18°C
Taupunkt: 16°C
Luftfeuchte: 88%
Luftdruck: 1009 hPa
Sicht: 9 km
2017/06/25 03:20 ETHB 250320Z AUTO 24010KT 9000 // ////// 18/16 Q1009 ///
ETGQ - Rotenburg, Germany
Entfernung von Station: NW 125 km
Aktualisierung: 10.10.2016 06:20
nicht aktuell

 Wind aus variiert<br>
Wind: variiert
0 km/h
Temperatur: 4°C
Taupunkt: 3°C
Luftfeuchte: 93%
Luftdruck: 1025 hPa
2016/10/10 04:20 ETGQ 100420Z AUTO /////KT //// // ////// 04/03 Q1025 ///
 
EDVK - Kassel/Calden, Germany
Entfernung von Station: SW 128 km
Aktualisierung: 24.06.2017 21:20
nicht aktuell
stark bewölkt
stark bewölkt
 Wind aus WNW
Wind: WNW 11 km/h
Temperatur: 18°C
Taupunkt: 15°C
Luftfeuchte: 83%
Luftdruck: 1014 hPa
Wolken: stark bewölkt
Sicht: 10 km
Wolken Details: leicht bewölkt 274 m
stark bewölkt 1554 m
2017/06/24 19:20 EDVK 241920Z 30006KT 9999 FEW009 BKN051 18/15 Q1014
EDDW - Bremen, Germany
Entfernung von Station: NW 145 km
Aktualisierung: 25.06.2017 05:20
stark bewölkt
stark bewölkt
 Wind aus SW
Wind: SW 22 km/h
Temperatur: 17°C
Taupunkt: 15°C
Luftfeuchte: 88%
Luftdruck: 1007 hPa
Wolken: stark bewölkt
Sicht: 10 km
Wolken Details: stark bewölkt 914 m
2017/06/25 03:20 EDDW 250320Z 22012KT 9999 BKN030 17/15 Q1007
 
EDDE - Erfurt, Germany
Entfernung von Station: SSO 148 km
Aktualisierung: 25.06.2017 05:20
Klar
Klar
 Wind aus SSW
Wind: SSW 17 km/h
Temperatur: 13°C
Taupunkt: 12°C
Luftfeuchte: 94%
Luftdruck: 1012 hPa
Zusammenfassung: Klar
Sicht: mehr als 10 km
2017/06/25 03:20 EDDE 250320Z 20009KT CAVOK 13/12 Q1012
EDLP - Paderborn, Germany
Entfernung von Station: WSW 135 km
Aktualisierung: 25.06.2017 05:20
Regen, feuchter Dunst, bedeckt
Regen, feuchter Dunst, bedeckt
 Wind aus SW
Wind: SW 19 km/h
Temperatur: 16°C
Taupunkt: 15°C
Luftfeuchte: 94%
Luftdruck: 1011 hPa
Zusammenfassung: Regen, feuchter Dunst
Wolken: bedeckt
Sicht: 5 km
Wolken Details: leicht bewölkt 152 m
bedeckt 457 m
2017/06/25 03:20 EDLP 250320Z 23010KT 4500 RA BR FEW005 OVC015 16/15 Q1011
 
EDHI - Hamburg/Finkenwe, Germany
Entfernung von Station: NNW 148 km
Aktualisierung: 24.06.2017 16:50
nicht aktuell
stark bewölkt
stark bewölkt
 Wind aus W
Wind: W 24 km/h
Temperatur: 18°C
Taupunkt: 16°C
Luftfeuchte: 88%
Luftdruck: 1010 hPa
Wolken: stark bewölkt
Sicht: 10 km
Wolken Details: leicht bewölkt 305 m
bewölkt 457 m
stark bewölkt 701 m
2017/06/24 14:50 EDHI 241450Z 28013KT 9999 FEW010 SCT015 BKN023 18/16 Q1010
EDDP - Leipzig/Schkeudi, Germany
Entfernung von Station: SO 149 km
Aktualisierung: 25.06.2017 05:20
Klar
Klar
 Wind aus SW
Wind: SW 6 km/h
Temperatur: 17°C
Taupunkt: 14°C
Luftfeuchte: 83%
Luftdruck: 1011 hPa
Zusammenfassung: Klar
Sicht: mehr als 10 km
2017/06/25 03:20 EDDP 250320Z 22003KT CAVOK 17/14 Q1011 NOSIG
 
EDDP - Leipzig/Halle, Germany
Entfernung von Station: SO 149 km
Aktualisierung: 25.06.2017 05:20
Klar
Klar
 Wind aus SW
Wind: SW 6 km/h
Temperatur: 17°C
Taupunkt: 14°C
Luftfeuchte: 83%
Luftdruck: 1011 hPa
Zusammenfassung: Klar
Sicht: mehr als 10 km
2017/06/25 03:20 EDDP 250320Z 22003KT CAVOK 17/14 Q1011 NOSIG
EDOP - Schwerin-Parchim, Germany
Entfernung von Station: NNO 153 km
Aktualisierung: 24.06.2017 17:20
nicht aktuell
bedeckt
bedeckt
 Wind aus SW
Wind: SW 20 km/h
Temperatur: 18°C
Taupunkt: 15°C
Luftfeuchte: 83%
Luftdruck: 1010 hPa
Wolken: bedeckt
Sicht: 10 km
Wolken Details: bedeckt 640 m
2017/06/24 15:20 EDOP 241520Z 22011KT 9999 OVC021 18/15 Q1010
 
ETND - Diepholz (ger-Af, Germany
Entfernung von Station: WNW 153 km
Aktualisierung: 23.06.2017 11:20
nicht aktuell
stark bewölkt
stark bewölkt
 Wind aus W
Wind: W 24 km/h
Temperatur: 20°C
Taupunkt: 13°C
Luftfeuchte: 64%
Luftdruck: 1013 hPa
Wolken: stark bewölkt
Sicht: 10 km
Wolken Details: stark bewölkt 762 m
stark bewölkt 4572 m
2017/06/23 09:20 ETND 230920Z 28013KT 9999 BKN025 BKN150 20/13 Q1013 BLU
EDDH - Hamburg, Germany
Entfernung von Station: NNW 154 km
Aktualisierung: 25.06.2017 05:20
stark bewölkt
stark bewölkt
 Wind aus SSW
Wind: SSW 22 km/h
Temperatur: 16°C
Taupunkt: 15°C
Luftfeuchte: 94%
Luftdruck: 1006 hPa
Wolken: stark bewölkt
Sicht: 8 km
Wolken Details: stark bewölkt 396 m
stark bewölkt 610 m
2017/06/25 03:20 EDDH 250320Z 21012KT 8000 BKN013 BKN020 16/15 Q1006 NOSIG
 
ETHF - Fritzlar (ger-Ar, Germany
Entfernung von Station: SW 156 km
Aktualisierung: 25.06.2017 05:20
stark bewölkt
stark bewölkt
 Wind aus S
Wind: S 9 km/h
Temperatur: 16°C
Taupunkt: 12°C
Luftfeuchte: 77%
Luftdruck: 1012 hPa
Wolken: stark bewölkt
Sicht: 10 km
Wolken Details: stark bewölkt 1829 m
2017/06/25 03:20 ETHF 250320Z 17005KT 9999 BKN060 16/12 Q1012 BLU
EDHL - Luebeck, Germany
Entfernung von Station: N 178 km
Aktualisierung: 24.06.2017 20:20
nicht aktuell
stark bewölkt
stark bewölkt
 Wind aus W
Wind: W 15 km/h
Temperatur: 17°C
Taupunkt: 12°C
Luftfeuchte: 73%
Luftdruck: 1010 hPa
Wolken: stark bewölkt
Sicht: 10 km
Wolken Details: stark bewölkt 1067 m
2017/06/24 18:20 EDHL 241820Z 28008KT 240V330 9999 BKN035 17/12 Q1010
 
ETSH - Holzdorf, Germany
Entfernung von Station: OSO 188 km
Aktualisierung: 25.06.2017 05:20
stark bewölkt
stark bewölkt
 Wind aus SSW
Wind: SSW 9 km/h
Temperatur: 18°C
Taupunkt: 14°C
Luftfeuchte: 78%
Luftdruck: 1011 hPa
Wolken: stark bewölkt
Sicht: 10 km
Wolken Details: bewölkt 1463 m
stark bewölkt 1859 m
2017/06/25 03:20 ETSH 250320Z 20005KT 9999 SCT048 BKN061 18/14 Q1011 BLU
EDDT - Berlin-Tegel, Germany
Entfernung von Station: ONO 190 km
Aktualisierung: 25.06.2017 05:20
stark bewölkt
stark bewölkt
 Wind aus SW
Wind: SW 19 km/h
Temperatur: 18°C
Taupunkt: 15°C
Luftfeuchte: 83%
Luftdruck: 1010 hPa
Wolken: stark bewölkt
Sicht: 10 km
Wolken Details: bewölkt 853 m
bewölkt 1036 m
stark bewölkt 1250 m
2017/06/25 03:20 EDDT 250320Z 22010KT 9999 SCT028 SCT034 BKN041 18/15 Q1010 NOSIG
 
ETNL - Rostock-Laage, Germany
Entfernung von Station: NO 217 km
Aktualisierung: 25.06.2017 05:20
leichter Nieselegen, stark bewölkt
leichter Nieselegen, stark bewölkt
 Wind aus variiert<br>
Wind: variiert
6 km/h
Temperatur: 14°C
Taupunkt: 13°C
Luftfeuchte: 94%
Luftdruck: 1007 hPa
Zusammenfassung: leichter Nieselegen
Wolken: stark bewölkt
Sicht: 10 km
Wolken Details: stark bewölkt 305 m
2017/06/25 03:20 ETNL 250320Z VRB03KT 9999 -DZ BKN010 14/13 Q1007 REDZ GRN
EDLW - Dortmund, Germany
Entfernung von Station: WSW 217 km
Aktualisierung: 25.06.2017 05:20
leichter Nieselegen, feuchter Dunst, stark bewölkt
leichter Nieselegen, feuchter Dunst, stark bewölkt
 Wind aus SW
Wind: SW 20 km/h
Temperatur: 15°C
Taupunkt: 14°C
Luftfeuchte: 94%
Luftdruck: 1011 hPa
Zusammenfassung: leichter Nieselegen, feuchter Dunst
Wolken: stark bewölkt
Sicht: 4 km
Wolken Details: stark bewölkt 122 m
2017/06/25 03:20 EDLW 250320Z 23011KT 3500 -DZ BR BKN004 15/14 Q1011
 
EDDK - Koeln/Bonn, Germany
Entfernung von Station: WSW 282 km
Aktualisierung: 25.06.2017 05:20
stark bewölkt
stark bewölkt
 Wind aus SW
Wind: SW 13 km/h
Temperatur: 19°C
Taupunkt: 13°C
Luftfeuchte: 68%
Luftdruck: 1012 hPa
Wolken: stark bewölkt
Sicht: 10 km
Wolken Details: leicht bewölkt 853 m
stark bewölkt 1006 m
2017/06/25 03:20 EDDK 250320Z 22007KT 9999 FEW028 BKN033 19/13 Q1012 NOSIG
EDDL - Düsseldorf, Germany
Entfernung von Station: WSW 282 km
Aktualisierung: 25.06.2017 05:20
Nieselregen, feuchter Dunst, stark bewölkt
Nieselregen, feuchter Dunst, stark bewölkt
 Wind aus WSW
Wind: WSW 20 km/h
Temperatur: 17°C
Taupunkt: 15°C
Luftfeuchte: 88%
Luftdruck: 1012 hPa
Zusammenfassung: Nieselregen, feuchter Dunst
Wolken: stark bewölkt
Sicht: 5 km
Wolken Details: bewölkt 335 m
stark bewölkt 427 m
2017/06/25 03:20 EDDL 250320Z 24011KT 5000 -RA BR SCT011 BKN014 17/15 Q1012 BECMG BKN020
 
EDDF - Frankfurt Main, Germany
Entfernung von Station: SSW 285 km
Aktualisierung: 25.06.2017 05:20
Klar
Klar
 Wind aus WSW
Wind: WSW 9 km/h
Temperatur: 13°C
Taupunkt: 10°C
Luftfeuchte: 82%
Luftdruck: 1014 hPa
Zusammenfassung: Klar
Sicht: mehr als 10 km
2017/06/25 03:20 EDDF 250320Z 24005KT CAVOK 13/10 Q1014 NOSIG
EDDS - Stuttgart, Germany
Entfernung von Station: SSW 413 km
Aktualisierung: 25.06.2017 05:20
Klar
Klar
 Wind aus variiert<br>
Wind: variiert
4 km/h
Temperatur: 18°C
Taupunkt: 12°C
Luftfeuchte: 68%
Luftdruck: 1015 hPa
Zusammenfassung: Klar
Sicht: mehr als 10 km
2017/06/25 03:20 EDDS 250320Z VRB02KT CAVOK 18/12 Q1015
 
EDDR - Saarbrücken, Germany
Entfernung von Station: SW 418 km
Aktualisierung: 25.06.2017 05:20
Klar
Klar
 Wind aus WSW
Wind: WSW 7 km/h
Temperatur: 15°C
Taupunkt: 11°C
Luftfeuchte: 77%
Luftdruck: 1015 hPa
Zusammenfassung: Klar
Sicht: mehr als 10 km
2017/06/25 03:20 EDDR 250320Z 24004KT CAVOK 15/11 Q1015
EDDM - München, Germany
Entfernung von Station: SSO 445 km
Aktualisierung: 25.06.2017 05:20
Klar
Klar
 Wind aus calm
Wind: Windstill
Temperatur: 14°C
Taupunkt: 13°C
Luftfeuchte: 94%
Luftdruck: 1015 hPa
Zusammenfassung: Klar
Sicht: mehr als 10 km
2017/06/25 03:20 EDDM 250320Z 00000KT CAVOK 14/13 Q1015 NOSIG
 
LOWI - Innsbruck, Austria
Entfernung von Station: WSW 566 km
Aktualisierung: 25.06.2017 05:20
stark bewölkt
stark bewölkt
 Wind aus variiert<br>
Wind: variiert
4 km/h
Temperatur: 19°C
Taupunkt: 17°C
Luftfeuchte: 88%
Luftdruck: 1016 hPa
Wolken: stark bewölkt
Sicht: 10 km
Wolken Details: leicht bewölkt 610 m
bewölkt 4267 m
stark bewölkt 4877 m
2017/06/25 03:20 LOWI 250320Z AUTO VRB02KT 9999 FEW020 SCT140 BKN160 19/17 Q1016
Besucherstatistik
Besucher gesamt: 732.823
Besucher heute: 307
Besucher gestern: 1.248
Besucher Ø : 978,53
gerade online: 25
max. online: 119
Seitenaufrufe heute: 511
Seitenaufrufe diese Seite: 2.519
Seitenaufrufe gesamt: 2.228.187
counter Statistiken